createdAt,value
2019-03-11T00:02:21.615Z,9.97
2019-03-11T00:04:50.528Z,10.53
2019-03-11T00:07:19.813Z,12.93
2019-03-11T00:09:48.775Z,14.00
2019-03-11T00:12:19.009Z,8.80
2019-03-11T00:14:52.289Z,8.20
2019-03-11T00:17:23.815Z,7.63
2019-03-11T00:19:55.179Z,5.60
2019-03-11T00:22:27.376Z,4.03
2019-03-11T00:24:56.625Z,4.77
2019-03-11T00:27:25.740Z,8.40
2019-03-11T00:29:56.197Z,8.57
2019-03-11T00:32:25.213Z,7.23
2019-03-11T00:34:56.105Z,5.07
2019-03-11T00:37:25.293Z,8.03
2019-03-11T00:39:54.224Z,5.03
2019-03-11T00:42:24.812Z,4.30
2019-03-11T00:44:55.220Z,3.37
2019-03-11T00:47:25.972Z,3.77
2019-03-11T00:49:57.279Z,4.03
2019-03-11T00:52:29.075Z,4.40
2019-03-11T00:55:00.824Z,4.47
2019-03-11T00:57:31.657Z,4.67
2019-03-11T01:05:34.880Z,4.83
2019-03-11T01:08:04.871Z,6.63
2019-03-11T01:10:34.539Z,4.87
2019-03-11T01:13:05.159Z,4.20
2019-03-11T01:15:35.007Z,3.63
2019-03-11T01:18:04.591Z,3.93
2019-03-11T01:20:34.494Z,5.40
2019-03-11T01:23:04.219Z,3.97
2019-03-11T01:25:33.779Z,4.63
2019-03-11T01:28:03.448Z,4.17
2019-03-11T01:30:33.083Z,4.40
2019-03-11T01:33:02.656Z,4.40
2019-03-11T01:35:33.675Z,5.80
2019-03-11T01:38:03.555Z,4.40
2019-03-11T01:40:33.647Z,4.63
2019-03-11T01:43:04.162Z,4.60
2019-03-11T01:45:34.219Z,4.60
2019-03-11T01:48:03.903Z,5.30
2019-03-11T01:50:34.071Z,5.27
2019-03-11T01:53:04.167Z,6.17
2019-03-11T01:55:35.428Z,5.53
2019-03-11T01:58:05.204Z,5.60
2019-03-11T02:00:35.315Z,6.10
2019-03-11T02:03:05.215Z,5.33
2019-03-11T02:05:35.363Z,6.77
2019-03-11T02:08:05.131Z,6.40
2019-03-11T02:10:34.747Z,6.63
2019-03-11T02:13:04.859Z,5.90
2019-03-11T02:15:34.509Z,6.27
2019-03-11T02:18:04.291Z,7.73
2019-03-11T02:20:34.259Z,7.73
2019-03-11T02:23:03.967Z,8.37
2019-03-11T02:25:33.811Z,7.57
2019-03-11T02:28:04.063Z,8.40
2019-03-11T02:30:33.788Z,10.27
2019-03-11T02:33:04.459Z,8.43
2019-03-11T02:35:34.644Z,7.87
2019-03-11T02:38:04.875Z,8.77
2019-03-11T02:40:34.473Z,8.50
2019-03-11T02:43:04.517Z,10.27
2019-03-11T02:45:34.214Z,11.10
2019-03-11T02:48:03.983Z,9.03
2019-03-11T02:50:33.937Z,9.83
2019-03-11T02:53:03.652Z,8.87
2019-03-11T02:55:33.392Z,9.37
2019-03-11T02:58:04.231Z,8.93
2019-03-11T03:00:33.968Z,8.33
2019-03-11T03:03:07.970Z,7.63
2019-03-11T03:05:39.464Z,6.90
2019-03-11T03:08:09.480Z,8.47
2019-03-11T03:10:39.724Z,7.57
2019-03-11T03:13:10.013Z,6.73
2019-03-11T03:15:39.670Z,5.70
2019-03-11T03:18:09.845Z,8.07
2019-03-11T03:20:39.459Z,6.30
2019-03-11T03:23:09.168Z,5.50
2019-03-11T03:25:39.429Z,6.53
2019-03-11T03:28:09.100Z,5.27
2019-03-11T03:30:38.932Z,5.17
2019-03-11T03:33:09.001Z,5.43
2019-03-11T03:35:39.036Z,7.30
2019-03-11T03:38:08.899Z,8.10
2019-03-11T03:40:38.798Z,7.67
2019-03-11T03:43:08.781Z,7.73
2019-03-11T03:45:41.319Z,7.87
2019-03-11T03:48:11.413Z,9.73
2019-03-11T03:50:41.799Z,9.20
2019-03-11T03:53:11.548Z,13.43
2019-03-11T03:55:42.040Z,9.47
2019-03-11T03:58:11.906Z,9.60
2019-03-11T04:00:42.163Z,10.53
2019-03-11T04:03:12.355Z,10.87
2019-03-11T04:05:42.091Z,8.57
2019-03-11T04:08:11.860Z,9.70
2019-03-11T04:10:42.046Z,7.00
2019-03-11T04:13:12.115Z,5.20
2019-03-11T04:15:41.714Z,6.80
2019-03-11T04:18:11.563Z,6.73
2019-03-11T04:20:41.162Z,5.00
2019-03-11T04:23:11.038Z,6.57
2019-03-11T04:25:41.119Z,15.43
2019-03-11T04:28:10.841Z,4.67
2019-03-11T04:30:40.959Z,5.53
2019-03-11T04:33:10.579Z,4.63
2019-03-11T04:35:40.156Z,5.20
2019-03-11T04:38:09.835Z,4.60
2019-03-11T04:40:39.559Z,7.77
2019-03-11T04:43:09.547Z,4.60
2019-03-11T04:45:39.184Z,5.77
2019-03-11T04:48:09.242Z,4.83
2019-03-11T04:50:38.812Z,5.83
2019-03-11T04:53:08.423Z,6.90
2019-03-11T04:55:38.975Z,7.40
2019-03-11T04:58:08.639Z,6.43
2019-03-11T05:00:38.474Z,6.63
2019-03-11T05:03:09.122Z,5.70
2019-03-11T05:05:38.771Z,6.40
2019-03-11T05:08:08.349Z,5.07
2019-03-11T05:10:38.820Z,9.80
2019-03-11T05:13:08.703Z,8.30
2019-03-11T05:15:38.532Z,8.33
2019-03-11T05:18:08.263Z,6.73
2019-03-11T05:20:38.127Z,8.27
2019-03-11T05:23:07.812Z,12.63
2019-03-11T05:25:37.914Z,12.80
2019-03-11T05:28:07.913Z,14.37
2019-03-11T05:30:38.024Z,13.13
2019-03-11T05:33:08.055Z,14.30
2019-03-11T05:35:37.943Z,18.83
2019-03-11T05:38:07.552Z,20.47
2019-03-11T05:40:37.672Z,15.20
2019-03-11T05:43:07.584Z,25.07
2019-03-11T05:45:37.315Z,23.07
2019-03-11T05:48:07.401Z,22.30
2019-03-11T05:50:37.111Z,19.73
2019-03-11T05:53:07.019Z,18.20
2019-03-11T05:55:36.872Z,18.37
2019-03-11T05:58:06.587Z,18.27
2019-03-11T06:00:36.279Z,16.20
2019-03-11T06:03:06.375Z,19.13
2019-03-11T06:05:36.163Z,15.13
2019-03-11T06:08:05.802Z,15.43
2019-03-11T06:10:35.687Z,14.17
2019-03-11T06:13:05.308Z,10.33
2019-03-11T06:15:34.992Z,19.83
2019-03-11T06:18:04.955Z,10.93
2019-03-11T06:20:48.359Z,14.27
2019-03-11T06:23:18.262Z,22.43
2019-03-11T06:25:48.129Z,18.50
2019-03-11T06:28:18.851Z,18.67
2019-03-11T06:30:48.867Z,16.33
2019-03-11T06:33:18.699Z,18.40
2019-03-11T06:35:48.282Z,18.20
2019-03-11T06:38:18.033Z,16.13
2019-03-11T06:40:47.720Z,17.97
2019-03-11T06:43:17.379Z,16.17
2019-03-11T06:45:47.064Z,19.50
2019-03-11T06:48:18.284Z,16.20
2019-03-11T06:50:48.359Z,19.40
2019-03-11T06:53:18.030Z,21.60
2019-03-11T06:55:47.720Z,19.77
2019-03-11T06:58:18.392Z,15.17
2019-03-11T07:00:49.388Z,15.73
2019-03-11T07:03:23.264Z,21.70
2019-03-11T07:05:53.611Z,21.70
2019-03-11T07:08:24.117Z,19.93
2019-03-11T07:10:53.935Z,18.17
2019-03-11T07:13:23.722Z,16.80
2019-03-11T07:15:53.503Z,18.77
2019-03-11T07:18:23.100Z,19.43
2019-03-11T07:20:53.839Z,24.97
2019-03-11T07:23:23.588Z,11.87
2019-03-11T07:25:57.315Z,13.93
2019-03-11T07:28:26.648Z,17.23
2019-03-11T07:30:56.659Z,17.37
2019-03-11T07:33:26.466Z,15.10
2019-03-11T07:35:56.391Z,13.00
2019-03-11T07:38:26.760Z,9.97
2019-03-11T07:40:56.782Z,14.87
2019-03-11T07:43:26.440Z,11.00
2019-03-11T07:46:17.779Z,17.13
2019-03-11T07:48:47.714Z,16.83
2019-03-11T07:51:17.419Z,18.10
2019-03-11T07:53:47.555Z,20.03
2019-03-11T07:56:17.191Z,16.07
2019-03-11T07:58:46.812Z,15.23
2019-03-11T08:01:17.191Z,12.87
2019-03-11T08:03:47.793Z,19.57
